Terminal Aerodrome Forecast
Issued by NWS Sterling, VA

Home | Current Version | Previous Version | Text Only | Print | Product List | Glossary On
Versions: 1 2 3 4 5 6 7 8 9 10 11 12 13 14 15
977
FTUS41 KLWX 290849 AAA
TAFMRB
TAF AMD
KMRB 290849Z 2909/3006 15004KT 6SM -SHRA SCT040 BKN090
     FM291200 22005KT P6SM SCT035 BKN110
     FM291700 26009KT P6SM VCTS SCT060CB
     FM292300 35006KT P6SM SCT060=

USA.gov is the U.S. government's official web portal to all federal, state and local government web resources and services.